Terminal Aerodrome Forecast
Issued by NWS

Home | Current Version | Previous Version | Text Only | Print | Product List | Glossary On
Versions: 1 2 3 4 5 6 7 8 9 10 11 12
000
FTUS44 KEPZ 261725
TAFLRU
TAF
KLRU 261725Z 2618/2718 22005KT P6SM BKN250
     FM262300 16008KT P6SM BKN250
     FM270400 11016G22KT P6SM BKN250
     FM271400 13008KT P6SM OVC250
     FM271500 13009G15KT P6SM BKN100 OVC250=

USA.gov is the U.S. government's official web portal to all federal, state and local government web resources and services.